Terminal Aerodrome Forecast
Issued by NWS Charleston, WV

Current Version | Previous Version | Graphics & Text | Print | Product List | Glossary On
Versions: 1 2 3 4 5 6 7 8 9 10 11 12 13 14 15 16 17 18 19 20 21 22 23
000
FTUS41 KRLX 230541
TAFHTS
TAF
KHTS 230541Z 2306/2406 VRB15G35KT 4SM SHRA OVC035
     FM230630 22011G19KT 6SM -SHRA OVC040
     FM230730 23011G19KT P6SM OVC035
     FM231500 24014G23KT P6SM BKN022
     FM232300 25012G18KT P6SM OVC026=

USA.gov is the U.S. government's official web portal to all federal, state and local government web resources and services.